Terminal Aerodrome Forecast
Issued by NWS

Current Version | Previous Version | Text Only | Print | Product List | Glossary Off
Versions: 1 2 3 4 5 6 7 8 9 10 11 12 13 14 15 16 17 18 19 20 21 22 23 24

000
FTUS41 KILN 300200 AAA
TAFLUK
TAF AMD
KLUK 300236Z 3003/3024 29009KT P6SM VCSH SCT017 BKN022 OVC050
     FM300900 30011KT P6SM OVC025
     FM301400 33012KT P6SM BKN028
     FM301800 34011KT P6SM SCT028=

USA.gov is the U.S. government's official web portal to all federal, state and local government web resources and services.